createdAt,value
2019-03-01T00:01:35.726Z,10.20
2019-03-01T00:04:25.627Z,10.20
2019-03-01T00:07:37.555Z,10.10
2019-03-01T00:10:58.611Z,10.00
2019-03-01T00:14:13.668Z,10.10
2019-03-01T00:17:01.863Z,10.10
2019-03-01T00:20:20.271Z,10.10
2019-03-01T00:23:21.364Z,10.00
2019-03-01T00:25:59.586Z,9.90
2019-03-01T00:28:51.947Z,9.90
2019-03-01T00:31:24.129Z,10.00
2019-03-01T00:34:20.051Z,10.00
2019-03-01T00:37:27.689Z,10.00
2019-03-01T00:40:20.397Z,10.00
2019-03-01T00:43:27.795Z,10.00
2019-03-01T00:45:54.677Z,10.00
2019-03-01T00:48:21.431Z,10.00
2019-03-01T00:50:48.355Z,9.90
2019-03-01T00:53:15.149Z,9.90
2019-03-01T00:55:41.883Z,9.90
2019-03-01T00:58:08.779Z,9.90
2019-03-01T01:00:39.935Z,9.90
2019-03-01T01:03:06.904Z,9.90
2019-03-01T01:05:33.771Z,9.60
2019-03-01T01:08:00.511Z,9.90
2019-03-01T01:10:27.371Z,9.90
2019-03-01T01:12:54.309Z,9.90
2019-03-01T01:15:21.322Z,9.90
2019-03-01T01:17:48.059Z,9.90
2019-03-01T01:20:15.087Z,9.80
2019-03-01T01:22:41.975Z,9.80
2019-03-01T01:25:08.895Z,9.90
2019-03-01T01:27:36.437Z,9.90
2019-03-01T01:30:04.196Z,9.90
2019-03-01T01:32:31.184Z,9.90
2019-03-01T01:34:58.152Z,9.90
2019-03-01T01:37:24.913Z,9.90
2019-03-01T01:39:52.071Z,9.80
2019-03-01T01:42:18.993Z,9.80
2019-03-01T01:44:45.930Z,9.80
2019-03-01T01:47:12.764Z,9.80
2019-03-01T01:49:39.763Z,9.70
2019-03-01T01:52:06.623Z,9.60
2019-03-01T01:54:33.399Z,9.60
2019-03-01T01:57:00.154Z,9.60
2019-03-01T01:59:26.943Z,9.60
2019-03-01T02:01:53.799Z,9.50
2019-03-01T02:04:20.651Z,9.50
2019-03-01T02:06:47.511Z,9.40
2019-03-01T02:09:18.415Z,9.30
2019-03-01T02:11:45.140Z,9.30
2019-03-01T02:14:12.043Z,9.30
2019-03-01T02:16:38.827Z,9.30
2019-03-01T02:19:06.042Z,9.30
2019-03-01T02:21:32.783Z,9.30
2019-03-01T02:23:59.523Z,9.30
2019-03-01T02:26:26.344Z,9.30
2019-03-01T02:28:53.149Z,9.30
2019-03-01T02:31:20.049Z,9.40
2019-03-01T02:33:47.037Z,9.40
2019-03-01T02:36:13.922Z,9.50
2019-03-01T02:38:40.774Z,9.50
2019-03-01T02:41:07.620Z,9.50
2019-03-01T02:43:34.363Z,9.50
2019-03-01T02:46:01.224Z,9.50
2019-03-01T02:48:28.095Z,9.50
2019-03-01T02:50:54.935Z,9.50
2019-03-01T02:53:21.699Z,9.40
2019-03-01T02:55:48.602Z,9.40
2019-03-01T02:58:15.658Z,9.40
2019-03-01T03:00:42.450Z,9.40
2019-03-01T03:03:09.273Z,9.40
2019-03-01T03:05:51.736Z,9.50
2019-03-01T03:08:18.715Z,9.40
2019-03-01T03:10:45.564Z,9.40
2019-03-01T03:13:12.295Z,9.40
2019-03-01T03:15:41.913Z,9.40
2019-03-01T03:18:08.733Z,9.40
2019-03-01T03:20:35.792Z,9.40
2019-03-01T03:23:02.799Z,9.40
2019-03-01T03:25:29.726Z,9.30
2019-03-01T03:27:56.437Z,9.30
2019-03-01T03:30:23.414Z,9.30
2019-03-01T03:32:50.628Z,9.30
2019-03-01T03:35:17.487Z,9.20
2019-03-01T03:37:44.372Z,9.30
2019-03-01T03:40:11.520Z,9.30
2019-03-01T03:42:38.490Z,9.20
2019-03-01T03:45:06.745Z,9.20
2019-03-01T03:47:33.692Z,9.20
2019-03-01T03:50:00.574Z,9.20
2019-03-01T03:52:27.687Z,9.20
2019-03-01T03:54:54.439Z,9.20
2019-03-01T03:57:21.524Z,9.20
2019-03-01T03:59:48.480Z,9.20
2019-03-01T04:02:15.320Z,9.20
2019-03-01T04:04:42.277Z,9.10
2019-03-01T04:07:09.548Z,9.20
2019-03-01T04:09:36.408Z,9.20
2019-03-01T04:12:03.392Z,9.30
2019-03-01T04:14:30.144Z,9.10
2019-03-01T04:16:57.031Z,9.10
2019-03-01T04:19:24.040Z,9.10
2019-03-01T04:21:50.876Z,9.10
2019-03-01T04:24:17.888Z,9.00
2019-03-01T04:26:44.672Z,9.00
2019-03-01T04:29:11.608Z,9.00
2019-03-01T04:31:38.305Z,9.00
2019-03-01T04:34:06.059Z,9.00
2019-03-01T04:36:33.139Z,9.00
2019-03-01T04:38:59.957Z,9.00
2019-03-01T04:41:26.948Z,9.00
2019-03-01T04:43:53.799Z,8.90
2019-03-01T04:46:20.533Z,8.90
2019-03-01T04:48:47.340Z,8.90
2019-03-01T04:51:14.265Z,8.80
2019-03-01T04:53:41.352Z,8.70
2019-03-01T04:56:08.382Z,8.80
2019-03-01T04:58:35.375Z,8.80
2019-03-01T05:01:03.022Z,8.80
2019-03-01T05:03:29.894Z,8.80
2019-03-01T05:05:56.868Z,8.80
2019-03-01T05:08:23.737Z,8.80
2019-03-01T05:10:50.636Z,8.80
2019-03-01T05:13:17.591Z,8.70
2019-03-01T05:15:44.571Z,8.70
2019-03-01T05:18:11.468Z,8.80
2019-03-01T05:20:38.592Z,8.80
2019-03-01T05:23:05.491Z,8.80
2019-03-01T05:25:32.349Z,8.80
2019-03-01T05:27:59.293Z,8.80
2019-03-01T05:30:26.192Z,8.80
2019-03-01T05:32:53.139Z,8.80
2019-03-01T05:35:19.990Z,8.80
2019-03-01T05:37:47.035Z,8.80
2019-03-01T05:40:14.103Z,8.80
2019-03-01T05:42:41.159Z,8.70
2019-03-01T05:45:11.639Z,8.70
2019-03-01T05:47:38.377Z,8.70
2019-03-01T05:50:07.078Z,8.70
2019-03-01T05:52:34.104Z,8.70
2019-03-01T05:55:00.999Z,8.70
2019-03-01T05:57:27.815Z,8.70
2019-03-01T05:59:54.683Z,8.70
2019-03-01T06:02:35.111Z,8.70
2019-03-01T06:05:09.211Z,8.70
2019-03-01T06:07:54.798Z,8.70
2019-03-01T06:10:48.260Z,8.60
2019-03-01T06:13:58.376Z,8.70
2019-03-01T06:16:37.463Z,8.70
2019-03-01T06:19:30.179Z,8.60
2019-03-01T06:23:00.509Z,8.60
2019-03-01T06:25:40.855Z,8.60
2019-03-01T06:28:35.787Z,8.60
2019-03-01T06:31:34.463Z,8.40
2019-03-01T06:34:42.399Z,8.70
2019-03-01T06:37:36.639Z,8.70
2019-03-01T06:40:28.803Z,8.70
2019-03-01T06:43:42.859Z,8.70
2019-03-01T06:46:44.201Z,8.70
2019-03-01T06:49:20.159Z,8.70
2019-03-01T06:51:46.953Z,8.70
2019-03-01T06:54:13.800Z,8.70
2019-03-01T06:56:40.635Z,8.70
2019-03-01T06:59:07.532Z,8.80
2019-03-01T07:01:37.336Z,8.80
2019-03-01T07:04:07.955Z,8.80
2019-03-01T07:06:34.690Z,8.80
2019-03-01T07:09:01.691Z,8.80
2019-03-01T07:11:28.411Z,8.70
2019-03-01T07:13:55.354Z,8.80
2019-03-01T07:16:22.234Z,8.80
2019-03-01T07:18:48.967Z,8.70
2019-03-01T07:21:15.740Z,8.80
2019-03-01T07:23:42.549Z,8.80
2019-03-01T07:26:09.268Z,8.80
2019-03-01T07:28:36.152Z,8.90
2019-03-01T07:31:03.991Z,8.90
2019-03-01T07:33:31.009Z,8.90
2019-03-01T07:35:57.772Z,9.00
2019-03-01T07:38:24.479Z,9.00
2019-03-01T07:40:51.255Z,9.00
2019-03-01T07:43:18.128Z,9.10
2019-03-01T07:45:45.063Z,9.20
2019-03-01T07:48:11.855Z,9.40
2019-03-01T07:50:38.560Z,9.70
2019-03-01T07:53:05.698Z,10.00
2019-03-01T07:55:32.548Z,10.20
2019-03-01T07:57:59.327Z,9.40
2019-03-01T08:00:26.173Z,10.50
2019-03-01T08:02:52.891Z,10.80
2019-03-01T08:05:19.801Z,10.90
2019-03-01T08:07:55.806Z,10.80
2019-03-01T08:10:20.627Z,10.60
2019-03-01T08:12:44.123Z,10.50
2019-03-01T08:15:12.178Z,10.30
2019-03-01T08:17:38.922Z,10.10
2019-03-01T08:20:08.945Z,10.00
2019-03-01T08:22:47.564Z,9.90
2019-03-01T08:25:05.696Z,9.70
2019-03-01T08:27:32.589Z,9.80
2019-03-01T08:29:59.323Z,9.80
2019-03-01T08:32:27.487Z,9.80
2019-03-01T08:34:55.130Z,9.80
2019-03-01T08:37:21.983Z,9.80
2019-03-01T08:39:49.686Z,9.80
2019-03-01T08:42:16.708Z,9.80
2019-03-01T08:44:43.628Z,10.00
2019-03-01T08:47:10.671Z,10.20
2019-03-01T08:49:37.675Z,10.20
2019-03-01T08:52:04.555Z,10.20
2019-03-01T08:54:31.317Z,10.30
2019-03-01T08:56:58.427Z,10.30
2019-03-01T08:59:25.431Z,10.30
2019-03-01T09:01:52.399Z,10.40
2019-03-01T09:04:21.458Z,10.40
2019-03-01T09:06:47.877Z,10.50
2019-03-01T09:09:17.559Z,10.50
2019-03-01T09:11:44.697Z,10.70
2019-03-01T09:14:12.327Z,10.80
2019-03-01T09:16:40.961Z,10.90
2019-03-01T09:19:07.958Z,10.90
2019-03-01T09:21:34.864Z,10.90
2019-03-01T09:24:01.853Z,10.70
2019-03-01T09:26:28.755Z,10.70
2019-03-01T09:28:55.806Z,10.80
2019-03-01T09:31:22.773Z,10.90
2019-03-01T09:33:49.746Z,11.00
2019-03-01T09:36:23.195Z,11.10
2019-03-01T09:38:50.040Z,11.20
2019-03-01T09:41:17.071Z,11.20
2019-03-01T09:43:43.792Z,11.20
2019-03-01T09:46:10.767Z,11.10
2019-03-01T09:48:37.638Z,11.10
2019-03-01T09:51:07.301Z,11.00
2019-03-01T09:53:34.169Z,11.20
2019-03-01T09:56:02.280Z,11.20
2019-03-01T09:58:29.028Z,11.30
2019-03-01T10:01:00.299Z,11.40
2019-03-01T10:03:27.255Z,11.50
2019-03-01T10:05:54.183Z,11.60
2019-03-01T10:08:21.031Z,11.80
2019-03-01T10:10:47.973Z,12.00
2019-03-01T10:13:15.136Z,12.30
2019-03-01T10:15:42.024Z,12.50
2019-03-01T10:18:09.052Z,12.40
2019-03-01T10:20:36.053Z,12.30
2019-03-01T10:23:03.163Z,12.30
2019-03-01T10:25:31.359Z,12.50
2019-03-01T10:27:58.272Z,12.60
2019-03-01T10:30:25.235Z,12.60
2019-03-01T10:32:52.138Z,12.80
2019-03-01T10:35:19.226Z,12.90
2019-03-01T10:37:46.221Z,13.20
2019-03-01T10:40:15.191Z,13.20
2019-03-01T10:42:42.044Z,13.10
2019-03-01T10:45:12.042Z,13.00
2019-03-01T10:47:38.867Z,12.70
2019-03-01T10:50:06.954Z,12.50
2019-03-01T10:52:33.854Z,12.40
2019-03-01T10:55:00.718Z,12.50
2019-03-01T10:57:27.585Z,12.70
2019-03-01T10:59:54.536Z,12.60
2019-03-01T11:02:21.423Z,12.60
2019-03-01T11:04:48.287Z,12.50
2019-03-01T11:07:15.167Z,12.40
2019-03-01T11:09:41.920Z,12.50
2019-03-01T11:12:09.001Z,12.70
2019-03-01T11:14:35.984Z,12.90
2019-03-01T11:17:02.827Z,13.00
2019-03-01T11:19:29.711Z,12.90
2019-03-01T11:21:56.448Z,13.10
2019-03-01T11:24:23.443Z,13.30
2019-03-01T11:26:50.312Z,13.50
2019-03-01T11:29:17.187Z,13.50
2019-03-01T11:31:44.082Z,13.40
2019-03-01T11:34:10.935Z,13.20
2019-03-01T11:36:37.855Z,13.10
2019-03-01T11:39:05.317Z,13.10
2019-03-01T11:41:32.147Z,13.00
2019-03-01T11:43:58.947Z,12.90
2019-03-01T11:46:25.775Z,12.80
2019-03-01T11:48:52.639Z,12.70
2019-03-01T11:51:19.659Z,12.70
2019-03-01T11:53:46.479Z,12.40
2019-03-01T11:56:13.615Z,12.50
2019-03-01T11:58:40.583Z,12.40
2019-03-01T12:01:16.699Z,12.30
2019-03-01T12:03:36.439Z,12.30
2019-03-01T12:06:03.299Z,12.10
2019-03-01T12:08:30.267Z,11.80
2019-03-01T12:10:57.338Z,11.80
2019-03-01T12:13:24.380Z,11.70
2019-03-01T12:15:51.343Z,11.70
2019-03-01T12:18:18.095Z,11.60
2019-03-01T12:20:44.967Z,11.50
2019-03-01T12:23:11.727Z,11.50
2019-03-01T12:25:38.467Z,11.60
2019-03-01T12:28:05.464Z,11.60
2019-03-01T12:30:32.310Z,11.70
2019-03-01T12:32:59.178Z,11.80
2019-03-01T12:35:26.931Z,12.00
2019-03-01T12:37:53.809Z,12.10
2019-03-01T12:40:23.650Z,12.10
2019-03-01T12:42:50.801Z,12.30
2019-03-01T12:45:17.696Z,12.50
2019-03-01T12:47:44.776Z,13.00
2019-03-01T12:50:11.807Z,13.30
2019-03-01T12:52:38.784Z,13.40
2019-03-01T12:55:06.995Z,13.30
2019-03-01T12:57:33.873Z,13.20
2019-03-01T13:00:00.646Z,13.10
2019-03-01T13:02:27.515Z,13.10
2019-03-01T13:04:54.543Z,12.50
2019-03-01T13:07:21.473Z,12.70
2019-03-01T13:09:48.403Z,12.40
2019-03-01T13:12:15.321Z,12.40
2019-03-01T13:14:42.188Z,12.40
2019-03-01T13:17:08.962Z,12.80
2019-03-01T13:19:35.707Z,13.60
2019-03-01T13:22:02.907Z,14.70
2019-03-01T13:24:29.888Z,15.50
2019-03-01T13:26:56.779Z,16.00
2019-03-01T13:29:23.627Z,15.50
2019-03-01T13:31:50.513Z,13.90
2019-03-01T13:34:17.307Z,15.00
2019-03-01T13:36:44.112Z,14.80
2019-03-01T13:39:11.291Z,14.80
2019-03-01T13:41:38.303Z,14.70
2019-03-01T13:44:05.183Z,14.90
2019-03-01T13:46:33.418Z,14.60
2019-03-01T13:49:00.295Z,14.50
2019-03-01T13:51:27.123Z,14.30
2019-03-01T13:53:54.015Z,14.10
2019-03-01T13:56:20.916Z,14.20
2019-03-01T13:58:48.044Z,14.20
2019-03-01T14:01:14.951Z,14.00
2019-03-01T14:03:41.895Z,13.70
2019-03-01T14:06:08.715Z,13.50
2019-03-01T14:08:37.399Z,13.40
2019-03-01T14:11:04.371Z,13.30
2019-03-01T14:13:31.257Z,13.10
2019-03-01T14:15:58.108Z,12.90
2019-03-01T14:18:25.134Z,12.70
2019-03-01T14:20:54.455Z,12.50
2019-03-01T14:23:21.236Z,12.30
2019-03-01T14:25:49.520Z,12.10
2019-03-01T14:28:16.523Z,12.10
2019-03-01T14:30:43.298Z,12.20
2019-03-01T14:33:10.290Z,12.20
2019-03-01T14:35:37.191Z,12.30
2019-03-01T14:38:04.187Z,12.20
2019-03-01T14:40:31.069Z,12.20
2019-03-01T14:42:58.052Z,12.20
2019-03-01T14:45:25.784Z,12.20
2019-03-01T14:47:53.031Z,12.10
2019-03-01T14:50:21.147Z,11.90
2019-03-01T14:52:48.152Z,11.80
2019-03-01T14:55:19.794Z,11.80
2019-03-01T14:58:11.359Z,11.80
2019-03-01T15:00:49.540Z,11.80
2019-03-01T15:03:30.552Z,11.80
2019-03-01T15:05:57.907Z,11.80
2019-03-01T15:08:24.773Z,11.70
2019-03-01T15:10:51.707Z,11.70
2019-03-01T15:13:18.554Z,11.60
2019-03-01T15:15:45.432Z,11.40
2019-03-01T15:18:12.494Z,11.30
2019-03-01T15:20:39.247Z,11.20
2019-03-01T15:23:05.964Z,11.00
2019-03-01T15:25:33.000Z,10.80
2019-03-01T15:27:59.743Z,10.80
2019-03-01T15:30:26.535Z,10.70
2019-03-01T15:32:53.273Z,10.60
2019-03-01T15:35:20.135Z,10.50
2019-03-01T15:37:46.931Z,10.50
2019-03-01T15:40:13.775Z,10.50
2019-03-01T15:42:40.495Z,10.50
2019-03-01T15:45:08.203Z,10.50
2019-03-01T15:47:35.055Z,10.40
2019-03-01T15:50:02.480Z,10.40
2019-03-01T15:52:29.292Z,10.50
2019-03-01T15:54:56.167Z,10.50
2019-03-01T15:57:23.083Z,10.60
2019-03-01T15:59:50.467Z,10.50
2019-03-01T16:02:17.335Z,10.40
2019-03-01T16:04:44.287Z,10.30
2019-03-01T16:07:11.003Z,10.30
2019-03-01T16:09:37.723Z,10.20
2019-03-01T16:12:04.599Z,10.20
2019-03-01T16:14:31.507Z,10.10
2019-03-01T16:16:58.498Z,10.10
2019-03-01T16:19:25.278Z,10.10
2019-03-01T16:21:52.107Z,10.10
2019-03-01T16:24:19.013Z,10.00
2019-03-01T16:26:45.995Z,10.00
2019-03-01T16:29:13.715Z,9.90
2019-03-01T16:31:40.667Z,9.90
2019-03-01T16:34:07.578Z,9.80
2019-03-01T16:36:38.223Z,9.80
2019-03-01T16:39:10.126Z,9.70
2019-03-01T16:41:39.683Z,9.70
2019-03-01T16:44:07.709Z,9.70
2019-03-01T16:46:34.583Z,9.70
2019-03-01T16:49:01.484Z,9.70
2019-03-01T16:51:28.332Z,9.70
2019-03-01T16:53:55.095Z,9.70
2019-03-01T16:56:21.851Z,9.70
2019-03-01T16:58:48.616Z,9.70
2019-03-01T17:01:15.626Z,9.70
2019-03-01T17:03:42.480Z,9.80
2019-03-01T17:06:10.502Z,9.80
2019-03-01T17:08:39.603Z,10.00
2019-03-01T17:11:07.022Z,9.80
2019-03-01T17:13:33.871Z,9.80
2019-03-01T17:16:00.765Z,9.80
2019-03-01T17:18:27.627Z,9.80
2019-03-01T17:20:54.512Z,9.70
2019-03-01T17:23:21.223Z,9.60
2019-03-01T17:25:48.219Z,9.60
2019-03-01T17:28:16.367Z,9.60
2019-03-01T17:30:46.680Z,9.60
2019-03-01T17:33:12.842Z,9.60
2019-03-01T17:35:41.082Z,9.50
2019-03-01T17:38:08.791Z,9.60
2019-03-01T17:40:35.892Z,9.60
2019-03-01T17:43:03.038Z,9.60
2019-03-01T17:45:29.915Z,9.60
2019-03-01T17:47:56.793Z,9.60
2019-03-01T17:50:23.629Z,9.60
2019-03-01T17:52:50.537Z,9.60
2019-03-01T17:55:17.512Z,9.60
2019-03-01T17:57:44.479Z,9.60
2019-03-01T18:00:13.707Z,9.60
2019-03-01T18:02:40.578Z,9.60
2019-03-01T18:05:08.127Z,9.50
2019-03-01T18:07:35.186Z,9.50
2019-03-01T18:10:02.319Z,9.50
2019-03-01T18:12:29.331Z,9.50
2019-03-01T18:14:56.192Z,9.50
2019-03-01T18:17:23.062Z,9.50
2019-03-01T18:19:49.831Z,9.50
2019-03-01T18:22:16.695Z,9.50
2019-03-01T18:24:43.566Z,9.70
2019-03-01T18:27:12.279Z,9.30
2019-03-01T18:29:42.404Z,9.50
2019-03-01T18:32:10.031Z,9.40
2019-03-01T18:34:37.507Z,9.40
2019-03-01T18:37:17.909Z,9.40
2019-03-01T18:39:33.288Z,9.40
2019-03-01T18:42:02.470Z,9.40
2019-03-01T18:44:28.687Z,9.40
2019-03-01T18:46:56.374Z,9.40
2019-03-01T18:49:23.350Z,9.30
2019-03-01T18:51:50.146Z,9.40
2019-03-01T18:54:17.052Z,9.30
2019-03-01T18:56:44.075Z,9.30
2019-03-01T18:59:10.921Z,9.30
2019-03-01T19:01:37.871Z,9.30
2019-03-01T19:04:04.928Z,9.30
2019-03-01T19:06:32.019Z,9.30
2019-03-01T19:08:58.880Z,9.20
2019-03-01T19:11:25.920Z,9.20
2019-03-01T19:13:52.916Z,9.20
2019-03-01T19:16:19.855Z,9.20
2019-03-01T19:18:48.292Z,9.20
2019-03-01T19:21:17.377Z,9.10
2019-03-01T19:23:44.411Z,9.20
2019-03-01T19:26:11.210Z,9.20
2019-03-01T19:28:38.967Z,9.20
2019-03-01T19:31:06.207Z,9.10
2019-03-01T19:33:34.636Z,9.10
2019-03-01T19:36:03.555Z,9.00
2019-03-01T19:38:30.819Z,8.90
2019-03-01T19:40:57.535Z,8.90
2019-03-01T19:43:24.451Z,8.80
2019-03-01T19:45:51.434Z,8.70
2019-03-01T19:48:18.227Z,8.60
2019-03-01T19:50:45.111Z,8.60
2019-03-01T19:53:12.135Z,8.50
2019-03-01T19:55:39.115Z,8.50
2019-03-01T19:58:08.665Z,8.50
2019-03-01T20:00:35.198Z,8.50
2019-03-01T20:03:02.018Z,8.50
2019-03-01T20:05:31.670Z,8.40
2019-03-01T20:07:57.819Z,8.40
2019-03-01T20:10:24.572Z,8.40
2019-03-01T20:12:53.467Z,8.40
2019-03-01T20:15:42.798Z,7.10
2019-03-01T20:18:09.733Z,7.30
2019-03-01T20:20:37.911Z,8.50
2019-03-01T20:23:04.631Z,8.40
2019-03-01T20:25:31.515Z,8.40
2019-03-01T20:27:58.291Z,8.40
2019-03-01T20:30:30.315Z,8.30
2019-03-01T20:32:54.463Z,8.30
2019-03-01T20:35:21.555Z,7.80
2019-03-01T20:37:48.465Z,8.30
2019-03-01T20:40:15.619Z,8.30
2019-03-01T20:42:42.847Z,8.30
2019-03-01T20:45:12.440Z,8.30
2019-03-01T20:47:39.320Z,8.20
2019-03-01T20:50:06.708Z,8.30
2019-03-01T20:52:34.847Z,8.30
2019-03-01T20:55:01.993Z,5.90
2019-03-01T20:57:29.347Z,8.30
2019-03-01T20:59:56.347Z,8.10
2019-03-01T21:02:23.348Z,8.20
2019-03-01T21:04:53.591Z,8.20
2019-03-01T21:07:18.779Z,8.20
2019-03-01T21:09:45.583Z,8.20
2019-03-01T21:12:12.423Z,8.20
2019-03-01T21:14:39.381Z,8.20
2019-03-01T21:17:06.131Z,8.20
2019-03-01T21:19:32.984Z,8.20
2019-03-01T21:22:01.546Z,8.10
2019-03-01T21:24:28.372Z,8.10
2019-03-01T21:26:55.263Z,8.10
2019-03-01T21:29:22.117Z,8.00
2019-03-01T21:31:48.907Z,7.90
2019-03-01T21:34:15.854Z,7.90
2019-03-01T21:36:42.639Z,7.80
2019-03-01T21:39:09.809Z,7.80
2019-03-01T21:41:37.395Z,7.70
2019-03-01T21:44:04.347Z,7.70
2019-03-01T21:46:34.055Z,7.70
2019-03-01T21:49:01.550Z,7.70
2019-03-01T21:51:28.430Z,7.70
2019-03-01T21:53:55.182Z,7.60
2019-03-01T21:56:23.094Z,7.60
2019-03-01T21:58:49.944Z,7.50
2019-03-01T22:01:16.935Z,7.50
2019-03-01T22:03:43.803Z,7.50
2019-03-01T22:06:10.648Z,7.40
2019-03-01T22:08:44.777Z,7.40
2019-03-01T22:11:13.607Z,8.80
2019-03-01T22:13:41.336Z,7.30
2019-03-01T22:16:08.482Z,7.30
2019-03-01T22:18:36.337Z,7.30
2019-03-01T22:21:03.395Z,7.30
2019-03-01T22:23:30.252Z,7.30
2019-03-01T22:25:57.140Z,7.30
2019-03-01T22:28:24.129Z,7.30
2019-03-01T22:30:51.189Z,7.30
2019-03-01T22:33:20.853Z,6.90
2019-03-01T22:35:46.610Z,7.30
2019-03-01T22:38:17.384Z,7.30
2019-03-01T22:40:44.235Z,7.20
2019-03-01T22:43:11.022Z,7.30
2019-03-01T22:45:37.771Z,7.30
2019-03-01T22:48:04.501Z,7.30
2019-03-01T22:50:31.387Z,7.30
2019-03-01T22:52:58.293Z,7.30
2019-03-01T22:55:25.275Z,7.20
2019-03-01T22:57:52.079Z,7.20
2019-03-01T23:01:18.767Z,7.20
2019-03-01T23:03:51.556Z,7.10
2019-03-01T23:06:19.489Z,7.10
2019-03-01T23:08:46.303Z,7.00
2019-03-01T23:11:13.218Z,7.00
2019-03-01T23:13:39.947Z,7.00
2019-03-01T23:16:06.879Z,7.00
2019-03-01T23:18:33.631Z,7.00
2019-03-01T23:21:01.069Z,7.00
2019-03-01T23:23:28.808Z,7.00
2019-03-01T23:25:55.570Z,7.00
2019-03-01T23:28:22.452Z,7.00
2019-03-01T23:30:49.312Z,7.10
2019-03-01T23:33:16.185Z,7.10
2019-03-01T23:35:43.302Z,7.10
2019-03-01T23:38:11.555Z,7.10
2019-03-01T23:40:38.964Z,7.20
2019-03-01T23:43:05.862Z,7.20
2019-03-01T23:45:32.717Z,7.20
2019-03-01T23:47:59.539Z,7.30
2019-03-01T23:50:26.377Z,7.30
2019-03-01T23:52:54.919Z,7.30
2019-03-01T23:55:22.268Z,7.30
2019-03-01T23:57:49.314Z,7.30
